createdAt,value
2022-11-04T17:59:57.402Z,58.00
2022-11-04T18:02:25.457Z,69.20
2022-11-04T18:04:53.788Z,60.10
2022-11-04T18:07:21.712Z,63.70
2022-11-04T18:09:50.048Z,74.30
2022-11-04T18:12:36.285Z,61.10
2022-11-04T18:15:17.243Z,67.50
2022-11-04T18:17:46.195Z,90.00
2022-11-04T18:20:17.949Z,70.30
2022-11-04T18:22:47.699Z,91.20
2022-11-04T18:25:15.909Z,145.80
2022-11-04T18:27:43.659Z,73.30
2022-11-04T18:30:12.066Z,61.40
2022-11-04T18:32:39.738Z,62.60
2022-11-04T18:35:08.105Z,60.80
2022-11-04T18:37:35.834Z,59.40
2022-11-04T18:40:03.953Z,63.90
2022-11-04T18:42:32.028Z,62.70
2022-11-04T18:44:59.966Z,108.70
2022-11-04T18:47:27.726Z,62.30
2022-11-04T18:49:55.924Z,80.90
2022-11-04T18:52:23.710Z,97.90
2022-11-04T18:54:51.526Z,73.10
2022-11-04T18:57:19.468Z,80.00
2022-11-04T18:59:47.842Z,70.50
2022-11-04T19:02:20.880Z,57.90
2022-11-04T19:04:53.344Z,61.80
2022-11-04T19:07:21.445Z,77.70
2022-11-04T19:09:49.532Z,91.40
2022-11-04T19:12:36.354Z,74.70
2022-11-04T19:15:04.842Z,75.80
2022-11-04T19:17:36.163Z,71.20
2022-11-04T19:20:11.357Z,65.60
2022-11-04T19:22:40.921Z,65.70
2022-11-04T19:25:10.312Z,66.00
2022-11-04T19:27:38.577Z,67.20
2022-11-04T19:30:07.088Z,68.30
2022-11-04T19:32:35.460Z,69.80
2022-11-04T19:35:03.664Z,78.00
2022-11-04T19:37:33.407Z,72.80
2022-11-04T19:40:01.302Z,65.00
2022-11-04T19:42:47.641Z,61.60
2022-11-04T19:45:15.545Z,58.30
2022-11-04T19:47:44.296Z,54.90
2022-11-04T19:50:13.171Z,51.10
2022-11-04T19:52:42.870Z,48.60
2022-11-04T19:55:11.715Z,47.10
2022-11-04T19:57:39.849Z,47.50
2022-11-04T20:00:08.937Z,48.10
2022-11-04T20:02:37.699Z,44.90
2022-11-04T20:05:07.387Z,39.50
2022-11-04T20:07:36.425Z,40.60
2022-11-04T20:10:05.259Z,41.50
2022-11-04T20:12:54.056Z,38.50
2022-11-04T20:15:22.821Z,37.40
2022-11-04T20:17:51.170Z,35.20
2022-11-04T20:20:19.205Z,35.90
2022-11-04T20:22:47.027Z,40.80
2022-11-04T20:25:15.656Z,43.80
2022-11-04T20:27:44.066Z,44.20
2022-11-04T20:30:13.549Z,47.60
2022-11-04T20:32:41.754Z,56.60
2022-11-04T20:35:09.579Z,56.70
2022-11-04T20:37:37.761Z,66.50
2022-11-04T20:40:06.990Z,56.70
2022-11-04T20:42:35.118Z,61.00
2022-11-04T20:45:03.140Z,51.00
2022-11-04T20:47:31.030Z,46.90
2022-11-04T20:49:58.813Z,47.60
2022-11-04T20:52:27.051Z,46.10
2022-11-04T20:54:54.854Z,46.40
2022-11-04T20:57:22.848Z,45.30
2022-11-04T20:59:51.017Z,43.90
2022-11-04T21:02:22.052Z,42.30
2022-11-04T21:04:50.869Z,41.40
2022-11-04T21:07:18.661Z,42.00
2022-11-04T21:09:46.690Z,43.50
2022-11-04T21:12:14.660Z,41.10
2022-11-04T21:14:42.334Z,38.40
2022-11-04T21:17:10.500Z,38.10
2022-11-04T21:19:38.214Z,39.00
2022-11-04T21:22:06.070Z,38.40
2022-11-04T21:24:39.138Z,40.80
2022-11-04T21:27:07.306Z,39.80
2022-11-04T21:29:35.156Z,40.80
2022-11-04T21:32:03.198Z,40.20
2022-11-04T21:34:30.936Z,40.90
2022-11-04T21:36:59.196Z,40.80
2022-11-04T21:39:26.948Z,40.20
2022-11-04T21:41:54.692Z,39.90
2022-11-04T21:44:23.910Z,38.50
2022-11-04T21:46:52.513Z,38.80
2022-11-04T21:49:20.360Z,38.80
2022-11-04T21:51:48.218Z,40.00
2022-11-04T21:54:15.943Z,39.40
2022-11-04T21:56:43.672Z,37.40
2022-11-04T21:59:17.956Z,35.80
2022-11-04T22:01:46.756Z,36.80
2022-11-04T22:04:15.621Z,35.20
2022-11-04T22:06:43.485Z,36.90
2022-11-04T22:09:12.724Z,35.90
2022-11-04T22:11:40.573Z,36.20
2022-11-04T22:14:08.709Z,39.20
2022-11-04T22:16:38.968Z,42.30
2022-11-04T22:19:10.407Z,38.20
2022-11-04T22:21:41.138Z,35.60
2022-11-04T22:24:11.997Z,36.50
2022-11-04T22:26:40.428Z,36.10
2022-11-04T22:29:08.904Z,36.30
2022-11-04T22:31:41.159Z,36.00
2022-11-04T22:34:09.913Z,34.20
2022-11-04T22:36:38.227Z,36.80
2022-11-04T22:39:06.815Z,36.60
2022-11-04T22:41:36.439Z,37.00
2022-11-04T22:44:04.347Z,36.20
2022-11-04T22:46:33.492Z,41.10
2022-11-04T22:49:01.578Z,38.60
2022-11-04T22:51:31.429Z,37.30
2022-11-04T22:54:04.829Z,34.90
2022-11-04T22:56:36.434Z,33.20
2022-11-04T22:59:04.719Z,34.40
2022-11-04T23:01:33.978Z,31.10
2022-11-04T23:04:02.960Z,30.30
2022-11-04T23:06:31.553Z,30.40
2022-11-04T23:09:00.706Z,29.00
2022-11-04T23:11:49.561Z,28.50
2022-11-04T23:14:40.062Z,28.60
2022-11-04T23:17:40.763Z,29.70
2022-11-04T23:20:13.326Z,29.00
2022-11-04T23:23:00.449Z,29.20
2022-11-04T23:25:28.491Z,29.10
2022-11-04T23:28:15.438Z,29.60
2022-11-04T23:30:46.141Z,29.70
2022-11-04T23:33:15.421Z,29.00
2022-11-04T23:36:04.830Z,30.00
2022-11-04T23:38:33.748Z,30.10
2022-11-04T23:41:25.430Z,30.90
2022-11-04T23:43:53.272Z,29.60
2022-11-04T23:46:43.160Z,30.00
2022-11-04T23:49:31.010Z,30.10
2022-11-04T23:52:17.640Z,31.00
2022-11-04T23:55:04.114Z,30.10
2022-11-04T23:57:50.681Z,28.70
